< < Back
Terminal Aerodrome Forecast


Current Version              Previous Versions:   1  2  3  4  5  6  7  8  9  

Terminal Aerodrome Forecast

553
FTUS42 KTAE 300543
TAFDHN
TAF
KDHN 300543Z 3006/0106 19008KT P6SM BKN250
     FM301700 17007KT P6SM VCTS SCT035CB BKN150
     FM301900 18006KT 4SM -TSRA BKN035CB OVC100
     FM302300 17005KT P6SM SCT040 BKN150=



Latest METAR

284
SAUS70 KWBC 301700
MTRDHN
METAR KDHN 301653Z 17007KT 10SM FEW018 29/23 A3003 RMK AO2 LTG DSNT NE
TSB13E28 SLP163 T02890233


USA.gov is the U.S. government's official web portal to all federal, state and local government web resources and services.